Terminal Aerodrome Forecast
Issued by NWS

Home | Current Version | Previous Version | Graphics & Text | Print | Product List | Glossary On
Versions: 1 2 3 4 5 6 7 8 9 10 11 12 13
000
FTUS43 KOAX 171720
TAFCDR
TAF
KCDR 171720Z 1718/1818 31013G24KT P6SM BKN120
     FM180000 24005KT P6SM SCT120
     FM180600 20006KT P6SM SCT120=

USA.gov is the U.S. government's official web portal to all federal, state and local government web resources and services.